Time;durP1;ratioP1;P1;durP2;ratioP2;P2;SDS_P1;SDS_P2;PMS_P1;PMS_P2;Temp;Humidity;BMP_temperature;BMP_pressure;BME280_temperature;BME280_humidity;BME280_pressure;Samples;Min_cycle;Max_cycle;Signal;HPM_P1;HPM_P2
2022/03/16 00:00:08;;;;;;;;;;;4.90;99.90;;;;;;4928355;29;19957;-83
2022/03/16 00:02:52;;;;;;;;;;;4.80;99.90;;;;;;4920268;29;20387;-83
2022/03/16 00:05:36;;;;;;;;;;;4.70;99.90;;;;;;4919279;29;20379;-85
2022/03/16 00:08:20;;;;;;;;;;;4.70;99.90;;;;;;4906212;29;20391;-85
2022/03/16 00:11:05;;;;;;;;;;;5.00;99.90;;;;;;4923781;29;19926;-83
2022/03/16 00:13:49;;;;;;;;;;;6.10;99.90;;;;;;4938388;29;19934;-83
2022/03/16 00:16:33;;;;;;;;;;;6.70;99.90;;;;;;4909781;29;19921;-83
2022/03/16 00:19:17;;;;;;;;;;;4.70;99.90;;;;;;4910216;29;19922;-83
2022/03/16 00:22:03;;;;;;;;;;;4.60;99.90;;;;;;4923618;29;20377;-83
2022/03/16 00:24:47;;;;;;;;;;;4.60;99.90;;;;;;4916361;29;19917;-83
2022/03/16 00:27:31;;;;;;;;;;;6.20;99.90;;;;;;4909816;29;19974;-83
2022/03/16 00:30:15;;;;;;;;;;;4.60;99.90;;;;;;4921898;29;19966;-83
2022/03/16 00:32:59;;;;;;;;;;;4.50;99.90;;;;;;4911388;29;19990;-83
2022/03/16 00:35:44;;;;;;;;;;;4.50;99.90;;;;;;4936267;29;20519;-83
2022/03/16 00:38:28;;;;;;;;;;;8.00;99.90;;;;;;4907036;29;20411;-84
2022/03/16 00:41:12;;;;;;;;;;;4.50;99.90;;;;;;4932824;29;19965;-83
2022/03/16 00:43:56;;;;;;;;;;;4.50;99.90;;;;;;4923296;29;19922;-83
2022/03/16 00:46:41;;;;;;;;;;;4.50;99.90;;;;;;4922592;29;19968;-83
2022/03/16 00:49:25;;;;;;;;;;;4.50;99.90;;;;;;4937417;29;19962;-84
2022/03/16 00:52:09;;;;;;;;;;;4.40;99.90;;;;;;4937668;29;20395;-83
2022/03/16 00:54:53;;;;;;;;;;;4.70;99.90;;;;;;4923511;29;19922;-83
2022/03/16 00:57:38;;;;;;;;;;;4.50;99.90;;;;;;4922223;29;20025;-83
2022/03/16 01:00:22;;;;;;;;;;;6.60;99.90;;;;;;4922479;29;19962;-83
2022/03/16 01:03:06;;;;;;;;;;;4.60;99.90;;;;;;4922695;29;19921;-82
2022/03/16 01:05:50;;;;;;;;;;;6.50;99.90;;;;;;4936798;29;19938;-83
2022/03/16 01:08:35;;;;;;;;;;;5.90;99.90;;;;;;4903437;29;19930;-83
2022/03/16 01:11:19;;;;;;;;;;;5.30;99.90;;;;;;4937246;29;19921;-83
2022/03/16 01:14:03;;;;;;;;;;;5.40;99.90;;;;;;4922675;29;19925;-83
2022/03/16 01:16:47;;;;;;;;;;;4.80;99.90;;;;;;4922094;29;19969;-83
2022/03/16 01:19:34;;;;;;;;;;;4.80;99.90;;;;;;4936398;29;19917;-83
2022/03/16 01:22:18;;;;;;;;;;;4.70;99.90;;;;;;4916027;29;19921;-83
2022/03/16 01:25:03;;;;;;;;;;;4.70;99.90;;;;;;4909202;29;20009;-83
2022/03/16 01:27:47;;;;;;;;;;;4.60;99.90;;;;;;4921813;29;19925;-83
2022/03/16 01:30:31;;;;;;;;;;;5.90;99.90;;;;;;4918629;29;19926;-86
2022/03/16 01:33:15;;;;;;;;;;;7.40;99.90;;;;;;4912441;29;19926;-83
2022/03/16 01:35:59;;;;;;;;;;;6.30;99.90;;;;;;4916574;29;20013;-83
2022/03/16 01:38:44;;;;;;;;;;;6.10;99.90;;;;;;4889306;29;20326;-84
2022/03/16 01:41:28;;;;;;;;;;;4.40;99.90;;;;;;4917820;29;19958;-83
2022/03/16 01:44:12;;;;;;;;;;;6.30;99.90;;;;;;4917749;29;19921;-82
2022/03/16 01:46:56;;;;;;;;;;;4.30;99.90;;;;;;4908150;29;20013;-82
2022/03/16 01:49:40;;;;;;;;;;;4.30;99.90;;;;;;4907989;29;19941;-82
2022/03/16 01:52:26;;;;;;;;;;;4.30;99.90;;;;;;4928794;29;19965;-82
2022/03/16 01:55:10;;;;;;;;;;;4.20;99.90;;;;;;4936334;29;19918;-83
2022/03/16 01:57:54;;;;;;;;;;;4.20;99.90;;;;;;4917351;29;19913;-82
2022/03/16 02:00:39;;;;;;;;;;;6.20;99.90;;;;;;4899901;29;19943;-83
2022/03/16 02:03:23;;;;;;;;;;;4.10;99.90;;;;;;4899943;29;20036;-83
2022/03/16 02:06:08;;;;;;;;;;;4.20;99.90;;;;;;4916985;29;19975;-83
2022/03/16 02:08:52;;;;;;;;;;;6.10;99.90;;;;;;4902539;29;20005;-83
2022/03/16 02:11:36;;;;;;;;;;;4.50;99.90;;;;;;4897466;29;20405;-84
2022/03/16 02:14:21;;;;;;;;;;;4.90;99.90;;;;;;4889740;29;19922;-82
2022/03/16 02:17:05;;;;;;;;;;;6.80;99.90;;;;;;4917105;29;19969;-82
2022/03/16 02:19:49;;;;;;;;;;;4.20;99.90;;;;;;4901842;29;19918;-83
2022/03/16 02:22:37;;;;;;;;;;;5.40;99.90;;;;;;4902787;29;19921;-82
2022/03/16 02:25:22;;;;;;;;;;;4.10;99.90;;;;;;4902691;29;19948;-83
2022/03/16 02:28:06;;;;;;;;;;;4.60;99.90;;;;;;4916784;29;20232;-83
2022/03/16 02:30:51;;;;;;;;;;;5.60;99.90;;;;;;4901773;29;19989;-83
2022/03/16 02:33:35;;;;;;;;;;;7.10;99.90;;;;;;4901889;29;19987;-83
2022/03/16 02:36:20;;;;;;;;;;;4.70;99.90;;;;;;4888110;29;19970;-82
2022/03/16 02:39:03;;;;;;;;;;;6.50;99.90;;;;;;4916261;29;19975;-84
2022/03/16 02:41:48;;;;;;;;;;;4.10;99.90;;;;;;4916079;29;19922;-83
2022/03/16 02:44:32;;;;;;;;;;;5.60;99.90;;;;;;4902311;29;20244;-82
2022/03/16 02:47:16;;;;;;;;;;;5.40;99.90;;;;;;4916451;29;19934;-83
2022/03/16 02:50:01;;;;;;;;;;;3.70;99.90;;;;;;4901775;29;20562;-83
2022/03/16 02:52:46;;;;;;;;;;;5.00;99.90;;;;;;4901671;29;20022;-83
2022/03/16 02:55:30;;;;;;;;;;;6.60;99.90;;;;;;4897400;29;19922;-83
2022/03/16 02:58:15;;;;;;;;;;;3.60;99.90;;;;;;4916230;29;19967;-83
2022/03/16 03:00:59;;;;;;;;;;;5.90;99.90;;;;;;4889453;29;19972;-83
2022/03/16 03:03:43;;;;;;;;;;;3.50;99.90;;;;;;4901636;29;19918;-85
2022/03/16 03:06:28;;;;;;;;;;;5.60;99.90;;;;;;4901965;29;19926;-83
2022/03/16 03:09:12;;;;;;;;;;;5.20;99.90;;;;;;4901580;29;19941;-83
2022/03/16 03:11:59;;;;;;;;;;;6.00;99.90;;;;;;4901438;29;19971;-82
2022/03/16 03:14:43;;;;;;;;;;;3.50;99.90;;;;;;4901655;29;19963;-84
2022/03/16 03:17:27;;;;;;;;;;;3.50;99.90;;;;;;4901653;29;19921;-82
2022/03/16 03:20:12;;;;;;;;;;;6.60;99.90;;;;;;4901960;29;19930;-82
2022/03/16 03:22:56;;;;;;;;;;;3.60;99.90;;;;;;4915313;29;20328;-83
2022/03/16 03:25:40;;;;;;;;;;;5.50;99.90;;;;;;4896202;29;19922;-82
2022/03/16 03:28:24;;;;;;;;;;;3.40;99.90;;;;;;4916040;29;19938;-83
2022/03/16 03:31:08;;;;;;;;;;;3.40;99.90;;;;;;4901065;29;19922;-82
2022/03/16 03:33:53;;;;;;;;;;;5.90;99.90;;;;;;4914357;29;19998;-83
2022/03/16 03:36:37;;;;;;;;;;;6.40;99.90;;;;;;4890910;29;19921;-82
2022/03/16 03:39:21;;;;;;;;;;;3.40;99.90;;;;;;4901690;29;20416;-82
2022/03/16 03:42:05;;;;;;;;;;;4.90;99.90;;;;;;4900491;29;20692;-83
2022/03/16 03:44:50;;;;;;;;;;;3.30;99.90;;;;;;4915503;29;19918;-83
2022/03/16 03:47:34;;;;;;;;;;;5.60;99.90;;;;;;4901639;29;20022;-82
2022/03/16 03:50:19;;;;;;;;;;;3.30;99.90;;;;;;4915637;29;19966;-83
2022/03/16 03:53:03;;;;;;;;;;;3.30;99.90;;;;;;4914512;29;19978;-83
2022/03/16 03:55:47;;;;;;;;;;;3.30;99.90;;;;;;4901278;29;19966;-86
2022/03/16 03:58:31;;;;;;;;;;;6.00;99.90;;;;;;4915755;29;19963;-82
2022/03/16 04:01:16;;;;;;;;;;;3.30;99.90;;;;;;4901351;29;20279;-83
2022/03/16 04:04:00;;;;;;;;;;;3.30;99.90;;;;;;4898645;29;20385;-82
2022/03/16 04:06:44;;;;;;;;;;;6.30;99.90;;;;;;4897607;29;19949;-83
2022/03/16 04:09:29;;;;;;;;;;;3.20;99.90;;;;;;4915261;29;19982;-82
2022/03/16 04:12:13;;;;;;;;;;;5.20;99.90;;;;;;4896789;29;20335;-82
2022/03/16 04:14:57;;;;;;;;;;;6.50;99.90;;;;;;4915026;29;19921;-83
2022/03/16 04:17:41;;;;;;;;;;;3.20;99.90;;;;;;4901138;29;20290;-82
2022/03/16 04:20:26;;;;;;;;;;;5.40;99.90;;;;;;4914879;29;19917;-83
2022/03/16 04:23:10;;;;;;;;;;;5.80;99.90;;;;;;4914966;29;19962;-82
2022/03/16 04:25:54;;;;;;;;;;;3.20;99.90;;;;;;4900486;29;19921;-83
2022/03/16 04:28:38;;;;;;;;;;;3.20;99.90;;;;;;4901062;29;19942;-82
2022/03/16 04:31:23;;;;;;;;;;;5.60;99.90;;;;;;4899588;29;19922;-82
2022/03/16 04:34:07;;;;;;;;;;;5.70;99.90;;;;;;4900070;29;19938;-82
2022/03/16 04:36:51;;;;;;;;;;;3.10;99.90;;;;;;4915471;29;20003;-82
2022/03/16 04:39:36;;;;;;;;;;;5.50;99.90;;;;;;4901081;29;19983;-82
2022/03/16 04:42:20;;;;;;;;;;;6.30;99.90;;;;;;4899577;29;20423;-82
2022/03/16 04:45:04;;;;;;;;;;;3.70;99.90;;;;;;4914914;29;19933;-82
2022/03/16 04:47:48;;;;;;;;;;;2.90;99.90;;;;;;4914398;29;19926;-82
2022/03/16 04:50:32;;;;;;;;;;;5.30;99.90;;;;;;4885509;29;19926;-82
2022/03/16 04:53:17;;;;;;;;;;;2.80;99.90;;;;;;4900011;29;19939;-82
2022/03/16 04:56:01;;;;;;;;;;;4.60;99.90;;;;;;4903773;29;19971;-82
2022/03/16 04:58:45;;;;;;;;;;;4.90;99.90;;;;;;4904300;29;19945;-82
2022/03/16 05:01:30;;;;;;;;;;;5.60;99.90;;;;;;4917863;29;20363;-82
2022/03/16 05:04:14;;;;;;;;;;;2.60;99.90;;;;;;4918055;29;20279;-82
2022/03/16 05:06:59;;;;;;;;;;;2.90;99.90;;;;;;4890211;29;19926;-84
2022/03/16 05:09:43;;;;;;;;;;;2.70;99.90;;;;;;4902540;29;19970;-82
2022/03/16 05:12:27;;;;;;;;;;;3.10;99.90;;;;;;4918321;29;20324;-82
2022/03/16 05:15:18;;;;;;;;;;;4.60;99.90;;;;;;4917637;29;19922;-82
2022/03/16 05:18:02;;;;;;;;;;;2.50;99.90;;;;;;4918289;29;19958;-83
2022/03/16 05:20:46;;;;;;;;;;;2.50;99.90;;;;;;4904539;29;19921;-83
2022/03/16 05:23:30;;;;;;;;;;;4.70;99.90;;;;;;4904553;29;20383;-83
2022/03/16 05:26:14;;;;;;;;;;;5.10;99.90;;;;;;4903701;29;19941;-83
2022/03/16 05:28:58;;;;;;;;;;;3.10;99.90;;;;;;4903815;29;19926;-85
2022/03/16 05:31:43;;;;;;;;;;;4.00;99.90;;;;;;4904491;29;19962;-82
2022/03/16 05:34:27;;;;;;;;;;;3.60;99.90;;;;;;4917437;29;19918;-82
2022/03/16 05:37:11;;;;;;;;;;;2.50;99.90;;;;;;4917972;29;20391;-82
2022/03/16 05:39:55;;;;;;;;;;;2.40;99.90;;;;;;4904257;29;19969;-82
2022/03/16 05:42:40;;;;;;;;;;;3.60;99.90;;;;;;4904225;29;20387;-83
2022/03/16 05:45:24;;;;;;;;;;;2.50;99.90;;;;;;4917318;29;20284;-83
2022/03/16 05:48:08;;;;;;;;;;;2.50;99.90;;;;;;4916713;29;20391;-83
2022/03/16 05:50:52;;;;;;;;;;;2.50;99.90;;;;;;4918538;29;19973;-82
2022/03/16 05:53:36;;;;;;;;;;;4.30;99.90;;;;;;4917953;29;19926;-84
2022/03/16 05:56:21;;;;;;;;;;;4.90;99.90;;;;;;4912634;29;19961;-84
2022/03/16 05:59:05;;;;;;;;;;;4.90;99.90;;;;;;4893207;29;19926;-85
2022/03/16 06:01:51;;;;;;;;;;;3.70;99.90;;;;;;4901884;29;20022;-83
2022/03/16 06:04:36;;;;;;;;;;;4.90;99.90;;;;;;4910335;29;20022;-83
2022/03/16 06:07:20;;;;;;;;;;;5.10;99.90;;;;;;4916832;29;19922;-83
2022/03/16 06:10:08;;;;;;;;;;;5.00;99.90;;;;;;4917784;29;19963;-84
2022/03/16 06:12:56;;;;;;;;;;;3.00;99.90;;;;;;4900398;29;19918;-82
2022/03/16 06:15:41;;;;;;;;;;;3.10;99.90;;;;;;4917484;29;19918;-83
2022/03/16 06:18:26;;;;;;;;;;;5.10;99.90;;;;;;4901587;29;19917;-83
2022/03/16 06:21:10;;;;;;;;;;;3.40;99.90;;;;;;4916153;29;19965;-83
2022/03/16 06:23:54;;;;;;;;;;;3.20;99.90;;;;;;4922105;29;20334;-82
2022/03/16 06:26:39;;;;;;;;;;;3.30;99.90;;;;;;4922084;29;19974;-82
2022/03/16 06:29:23;;;;;;;;;;;5.00;99.90;;;;;;4921615;29;19969;-83
2022/03/16 06:32:08;;;;;;;;;;;6.20;99.90;;;;;;4902723;29;19984;-84
2022/03/16 06:34:52;;;;;;;;;;;3.40;99.90;;;;;;4936523;29;20069;-82
2022/03/16 06:37:36;;;;;;;;;;;3.60;99.90;;;;;;4936134;29;19918;-83
2022/03/16 06:40:20;;;;;;;;;;;5.60;99.90;;;;;;4921204;29;19922;-83
2022/03/16 06:43:04;;;;;;;;;;;4.70;99.90;;;;;;4921760;29;20382;-83
2022/03/16 06:45:48;;;;;;;;;;;3.90;99.90;;;;;;4926774;29;19953;-83
2022/03/16 06:48:33;;;;;;;;;;;4.90;99.90;;;;;;4916621;29;19926;-83
2022/03/16 06:51:17;;;;;;;;;;;3.90;99.90;;;;;;4916548;29;19934;-83
2022/03/16 06:54:01;;;;;;;;;;;5.30;99.90;;;;;;4902386;29;19922;-82
2022/03/16 06:56:45;;;;;;;;;;;3.90;99.90;;;;;;4902107;29;19922;-83
2022/03/16 06:59:29;;;;;;;;;;;4.30;99.90;;;;;;4916243;29;19977;-84
2022/03/16 07:02:14;;;;;;;;;;;6.20;99.90;;;;;;4897612;29;19926;-84
2022/03/16 07:04:59;;;;;;;;;;;5.60;99.90;;;;;;4885084;29;20296;-83
2022/03/16 07:07:43;;;;;;;;;;;4.30;99.90;;;;;;4916259;29;20374;-83
2022/03/16 07:10:28;;;;;;;;;;;4.30;99.90;;;;;;4896625;29;19929;-83
2022/03/16 07:13:13;;;;;;;;;;;7.30;99.90;;;;;;4916201;29;19963;-84
2022/03/16 07:15:57;;;;;;;;;;;5.90;99.90;;;;;;4916321;29;19934;-82
2022/03/16 07:18:41;;;;;;;;;;;4.60;99.90;;;;;;4901610;29;19926;-82
2022/03/16 07:21:25;;;;;;;;;;;4.60;99.90;;;;;;4888327;29;19947;-83
2022/03/16 07:24:09;;;;;;;;;;;4.70;99.90;;;;;;4916389;29;19963;-82
2022/03/16 07:26:55;;;;;;;;;;;4.70;99.90;;;;;;4902166;29;20379;-83
2022/03/16 07:29:39;;;;;;;;;;;5.20;99.90;;;;;;4902019;29;19922;-83
2022/03/16 07:32:24;;;;;;;;;;;5.10;99.90;;;;;;4916507;29;20006;-83
2022/03/16 07:35:11;;;;;;;;;;;5.60;99.90;;;;;;4903005;29;19969;-83
2022/03/16 07:37:56;;;;;;;;;;;5.20;99.90;;;;;;4916277;29;20299;-82
2022/03/16 07:40:41;;;;;;;;;;;5.40;99.90;;;;;;4916039;29;19918;-83
2022/03/16 07:43:25;;;;;;;;;;;8.00;99.90;;;;;;4900499;29;19938;-83
2022/03/16 07:46:09;;;;;;;;;;;6.10;99.90;;;;;;4915392;29;19942;-82
2022/03/16 07:48:53;;;;;;;;;;;6.40;99.90;;;;;;4901245;29;20283;-82
2022/03/16 07:51:37;;;;;;;;;;;6.70;99.90;;;;;;4915228;29;19994;-83
2022/03/16 07:54:22;;;;;;;;;;;8.10;99.90;;;;;;4900924;29;20307;-84
2022/03/16 07:57:06;;;;;;;;;;;8.00;99.90;;;;;;4888656;29;20423;-84
2022/03/16 07:59:50;;;;;;;;;;;8.50;99.90;;;;;;4888665;29;19922;-84
2022/03/16 08:02:34;;;;;;;;;;;8.50;99.90;;;;;;4901097;29;20320;-84
2022/03/16 08:05:21;;;;;;;;;;;8.30;99.90;;;;;;4888154;29;19921;-86
2022/03/16 08:08:05;;;;;;;;;;;8.10;99.90;;;;;;4901651;29;19930;-84
2022/03/16 08:10:49;;;;;;;;;;;7.90;99.90;;;;;;4901946;29;19926;-84
2022/03/16 08:13:37;;;;;;;;;;;7.80;99.90;;;;;;4915659;29;19918;-83
2022/03/16 08:16:21;;;;;;;;;;;7.70;99.90;;;;;;4897853;29;19919;-85
2022/03/16 08:19:05;;;;;;;;;;;7.70;99.90;;;;;;4888509;29;19925;-84
2022/03/16 08:21:49;;;;;;;;;;;7.70;99.90;;;;;;4900865;29;20436;-84
2022/03/16 08:24:33;;;;;;;;;;;7.70;99.90;;;;;;4896553;29;19922;-84
2022/03/16 08:27:18;;;;;;;;;;;7.80;99.90;;;;;;4915240;29;20442;-84
2022/03/16 08:30:02;;;;;;;;;;;8.50;99.90;;;;;;4917360;29;20299;-84
2022/03/16 08:32:46;;;;;;;;;;;8.50;99.90;;;;;;4888480;29;19939;-83
2022/03/16 08:35:31;;;;;;;;;;;8.90;99.90;;;;;;4904196;29;19922;-83
2022/03/16 08:38:15;;;;;;;;;;;9.10;99.90;;;;;;4891714;29;19926;-84
2022/03/16 08:40:59;;;;;;;;;;;12.10;99.90;;;;;;4905198;29;19966;-84
2022/03/16 08:43:44;;;;;;;;;;;9.40;99.90;;;;;;4891163;29;19971;-83
2022/03/16 08:46:29;;;;;;;;;;;9.40;99.90;;;;;;4918665;29;19926;-84
2022/03/16 08:49:13;;;;;;;;;;;9.40;99.90;;;;;;4918318;29;19967;-86
2022/03/16 08:51:58;;;;;;;;;;;9.40;99.90;;;;;;4919102;29;19930;-84
2022/03/16 08:54:42;;;;;;;;;;;9.90;99.90;;;;;;4904451;29;20157;-84
2022/03/16 08:57:26;;;;;;;;;;;10.10;99.90;;;;;;4918635;29;20339;-85
2022/03/16 09:00:14;;;;;;;;;;;10.20;99.90;;;;;;4918155;29;19984;-84
2022/03/16 09:02:58;;;;;;;;;;;10.30;99.90;;;;;;4905060;29;19999;-84
2022/03/16 09:05:43;;;;;;;;;;;11.60;99.90;;;;;;4904073;29;19979;-84
2022/03/16 09:08:27;;;;;;;;;;;10.60;99.90;;;;;;4913253;29;19926;-84
2022/03/16 09:11:11;;;;;;;;;;;10.90;99.90;;;;;;4886171;29;19928;-84
2022/03/16 09:13:55;;;;;;;;;;;11.10;99.90;;;;;;4909348;29;19921;-84
2022/03/16 09:16:40;;;;;;;;;;;11.00;99.90;;;;;;4904022;29;19922;-84
2022/03/16 09:19:24;;;;;;;;;;;11.00;99.90;;;;;;4891329;29;20411;-86
2022/03/16 09:22:08;;;;;;;;;;;13.00;99.90;;;;;;4904423;29;19921;-84
2022/03/16 09:24:52;;;;;;;;;;;10.90;99.90;;;;;;4891212;29;19922;-84
2022/03/16 09:27:37;;;;;;;;;;;11.00;99.90;;;;;;4917964;29;19926;-85
2022/03/16 09:30:23;;;;;;;;;;;11.00;99.90;;;;;;4917816;29;19922;-84
2022/03/16 09:33:07;;;;;;;;;;;11.10;99.90;;;;;;4917709;29;19963;-85
2022/03/16 09:35:54;;;;;;;;;;;11.20;99.90;;;;;;4903865;29;19925;-85
2022/03/16 09:38:39;;;;;;;;;;;11.30;99.90;;;;;;4917735;29;20382;-84
2022/03/16 09:41:23;;;;;;;;;;;11.40;99.90;;;;;;4890992;29;19943;-84
2022/03/16 09:44:07;;;;;;;;;;;11.40;99.90;;;;;;4918469;29;20378;-84
2022/03/16 09:46:52;;;;;;;;;;;11.60;99.90;;;;;;4903504;29;19926;-85
2022/03/16 09:49:37;;;;;;;;;;;11.70;99.90;;;;;;4890018;29;19926;-85
2022/03/16 09:52:26;;;;;;;;;;;12.00;99.90;;;;;;4918295;29;20050;-85
2022/03/16 09:55:10;;;;;;;;;;;12.30;99.90;;;;;;4918427;29;20359;-84
2022/03/16 09:57:54;;;;;;;;;;;12.50;99.90;;;;;;4903483;29;19921;-84
2022/03/16 10:00:38;;;;;;;;;;;12.50;99.90;;;;;;4902948;29;19922;-84
2022/03/16 10:03:25;;;;;;;;;;;12.60;99.90;;;;;;4918153;29;20330;-84
2022/03/16 10:06:09;;;;;;;;;;;12.60;99.90;;;;;;4903500;29;19973;-84
2022/03/16 10:15:10;;;;;;;;;;;12.80;99.90;;;;;;4917642;29;19918;-84
2022/03/16 10:18:02;;;;;;;;;;;12.90;99.90;;;;;;4902269;29;19919;-83
2022/03/16 10:20:46;;;;;;;;;;;12.90;99.90;;;;;;4915367;29;20403;-84
2022/03/16 10:23:30;;;;;;;;;;;13.00;99.90;;;;;;4902817;29;19922;-83
2022/03/16 10:26:18;;;;;;;;;;;13.10;99.90;;;;;;4901518;29;19926;-83
2022/03/16 10:29:04;;;;;;;;;;;13.10;99.90;;;;;;4903044;29;19957;-84
2022/03/16 10:32:01;;;;;;;;;;;13.10;99.90;;;;;;4917012;29;19971;-84
2022/03/16 10:34:50;;;;;;;;;;;13.20;99.90;;;;;;4916098;29;19922;-84
2022/03/16 10:37:34;;;;;;;;;;;;;;;;;;4917081;29;19966;-85
2022/03/16 10:40:20;;;;;;;;;;;13.30;99.90;;;;;;4903246;29;19918;-83
2022/03/16 10:46:35;;;;;;;;;;;13.30;99.90;;;;;;4913505;29;19917;-84
2022/03/16 10:49:22;;;;;;;;;;;13.30;99.90;;;;;;4902135;29;20039;-83
2022/03/16 10:52:09;;;;;;;;;;;13.40;99.90;;;;;;4916340;29;19918;-83
2022/03/16 10:54:53;;;;;;;;;;;13.50;99.90;;;;;;4916902;29;19918;-85
2022/03/16 10:57:38;;;;;;;;;;;;;;;;;;4902660;29;19979;-86
2022/03/16 11:00:27;;;;;;;;;;;13.70;99.90;;;;;;4917105;29;20379;-84
2022/03/16 11:03:16;;;;;;;;;;;13.80;99.90;;;;;;4916667;29;19951;-83
2022/03/16 11:06:00;;;;;;;;;;;13.80;99.90;;;;;;4909267;29;19968;-84
2022/03/16 11:08:45;;;;;;;;;;;13.80;99.90;;;;;;4902479;29;19933;-85
2022/03/16 11:14:33;;;;;;;;;;;13.80;99.90;;;;;;4904478;29;19922;-83
2022/03/16 11:17:17;;;;;;;;;;;13.80;99.90;;;;;;4901871;29;19971;-83
2022/03/16 11:20:02;;;;;;;;;;;13.90;99.90;;;;;;4901075;29;19994;-84
2022/03/16 11:26:01;;;;;;;;;;;14.20;99.90;;;;;;4915134;29;20172;-84
2022/03/16 11:29:00;;;;;;;;;;;14.30;99.80;;;;;;4900404;29;19978;-84
2022/03/16 11:31:47;;;;;;;;;;;14.40;99.90;;;;;;4914994;29;20384;-86
2022/03/16 11:34:33;;;;;;;;;;;14.60;99.60;;;;;;4901361;29;19918;-84
2022/03/16 11:37:18;;;;;;;;;;;14.70;97.30;;;;;;4901577;29;19919;-84
2022/03/16 11:40:16;;;;;;;;;;;14.80;97.90;;;;;;4887885;29;20005;-84
2022/03/16 11:43:00;;;;;;;;;;;14.80;98.00;;;;;;4900976;29;19917;-83
2022/03/16 11:45:45;;;;;;;;;;;;;;;;;;4901097;29;19918;-85
2022/03/16 11:48:33;;;;;;;;;;;14.90;95.30;;;;;;4915360;29;19922;-84
2022/03/16 11:51:18;;;;;;;;;;;15.00;98.70;;;;;;4901277;29;19922;-84
2022/03/16 11:54:03;;;;;;;;;;;15.10;97.40;;;;;;4900742;29;19922;-83
2022/03/16 11:56:47;;;;;;;;;;;15.10;97.50;;;;;;4900886;29;19982;-85
2022/03/16 11:59:33;;;;;;;;;;;15.20;97.40;;;;;;4915669;29;19959;-83
2022/03/16 12:02:18;;;;;;;;;;;;;;;;;;4864633;29;1097776;-84
2022/03/16 12:05:03;;;;;;;;;;;15.40;95.00;;;;;;4904167;29;19917;-84
2022/03/16 12:07:48;;;;;;;;;;;;;;;;;;4918967;29;19941;-85
2022/03/16 12:10:32;;;;;;;;;;;;;;;;;;4919455;29;19925;-83
2022/03/16 12:13:18;;;;;;;;;;;15.60;95.20;;;;;;4900795;29;19919;-84
2022/03/16 12:16:05;;;;;;;;;;;15.80;95.60;;;;;;4885711;29;19934;-83
2022/03/16 12:18:49;;;;;;;;;;;;;;;;;;4899257;29;19962;-84
2022/03/16 12:21:35;;;;;;;;;;;15.80;94.60;;;;;;4905481;29;19933;-81
2022/03/16 12:30:41;;;;;;;;;;;16.10;90.80;;;;;;4919265;29;19927;-81
2022/03/16 12:33:29;;;;;;;;;;;16.10;92.20;;;;;;4904927;29;20014;-81
2022/03/16 12:36:14;;;;;;;;;;;16.10;93.00;;;;;;4919019;29;19943;-81
2022/03/16 12:39:08;;;;;;;;;;;16.20;92.90;;;;;;4918800;29;20031;-81
2022/03/16 12:44:56;;;;;;;;;;;;;;;;;;4918353;29;20385;-81
2022/03/16 12:47:41;;;;;;;;;;;16.30;92.10;;;;;;4904711;29;19922;-81
2022/03/16 12:50:27;;;;;;;;;;;16.30;90.90;;;;;;4919222;29;19937;-80
2022/03/16 12:53:11;;;;;;;;;;;16.30;92.10;;;;;;4918520;29;19921;-83
2022/03/16 12:55:56;;;;;;;;;;;16.30;91.70;;;;;;4904007;29;20383;-82
2022/03/16 12:58:41;;;;;;;;;;;16.20;91.20;;;;;;4918708;29;19930;-82
2022/03/16 13:01:26;;;;;;;;;;;16.20;90.70;;;;;;4918626;29;19938;-82
2022/03/16 13:04:10;;;;;;;;;;;16.10;90.90;;;;;;4917401;29;20492;-83
2022/03/16 13:06:56;;;;;;;;;;;;;;;;;;4903880;29;20416;-82
2022/03/16 13:09:41;;;;;;;;;;;;;;;;;;4915586;29;19982;-82
2022/03/16 13:12:26;;;;;;;;;;;;;;;;;;4918164;29;19942;-84
2022/03/16 13:15:10;;;;;;;;;;;;;;;;;;4917875;29;19918;-83
2022/03/16 13:17:57;;;;;;;;;;;16.00;90.10;;;;;;4903670;29;19917;-82
2022/03/16 13:20:42;;;;;;;;;;;;;;;;;;4918564;29;20411;-81
2022/03/16 13:23:28;;;;;;;;;;;;;;;;;;4918579;29;20386;-82
2022/03/16 13:26:12;;;;;;;;;;;16.10;89.20;;;;;;4917381;29;19973;-82
2022/03/16 13:28:57;;;;;;;;;;;;;;;;;;4917924;29;19926;-82
2022/03/16 13:31:42;;;;;;;;;;;16.00;88.20;;;;;;4918492;29;19934;-82
2022/03/16 13:34:26;;;;;;;;;;;15.90;83.30;;;;;;4918559;29;20291;-82
2022/03/16 13:37:23;;;;;;;;;;;15.70;87.40;;;;;;4906900;29;19939;-81
2022/03/16 13:40:11;;;;;;;;;;;15.40;86.10;;;;;;4917670;29;20358;-81
2022/03/16 13:42:55;;;;;;;;;;;;;;;;;;4903821;29;19922;-85
2022/03/16 13:45:40;;;;;;;;;;;;;;;;;;4903199;29;20267;-82
2022/03/16 13:48:27;;;;;;;;;;;15.20;88.10;;;;;;4902704;29;19970;-82
2022/03/16 13:51:12;;;;;;;;;;;15.30;87.80;;;;;;4902432;29;19926;-82
2022/03/16 13:53:56;;;;;;;;;;;;;;;;;;4916282;29;19966;-83
2022/03/16 13:56:41;;;;;;;;;;;;;;;;;;4917332;29;19918;-82
2022/03/16 13:59:29;;;;;;;;;;;15.30;87.40;;;;;;4903628;29;19922;-82
2022/03/16 14:02:14;;;;;;;;;;;15.30;87.80;;;;;;4916832;29;19926;-82
2022/03/16 14:04:59;;;;;;;;;;;;;;;;;;4902413;29;20419;-83
2022/03/16 14:07:44;;;;;;;;;;;15.20;84.90;;;;;;4902954;29;19970;-82
2022/03/16 14:10:28;;;;;;;;;;;15.10;89.00;;;;;;4884851;29;19942;-82
2022/03/16 14:13:12;;;;;;;;;;;15.00;87.50;;;;;;4895817;29;20443;-82
2022/03/16 14:15:57;;;;;;;;;;;;;;;;;;4903159;29;19981;-82
2022/03/16 14:18:42;;;;;;;;;;;;;;;;;;4903425;29;20386;-83
2022/03/16 14:21:26;;;;;;;;;;;15.00;88.60;;;;;;4917667;29;19966;-82
2022/03/16 14:24:10;;;;;;;;;;;14.90;88.40;;;;;;4889718;29;19962;-82
2022/03/16 14:26:55;;;;;;;;;;;14.80;87.10;;;;;;4902716;29;20390;-82
2022/03/16 14:29:39;;;;;;;;;;;14.70;88.60;;;;;;4903663;29;20010;-82
2022/03/16 14:32:25;;;;;;;;;;;;;;;;;;4871189;29;19971;-82
2022/03/16 14:35:09;;;;;;;;;;;14.60;88.20;;;;;;4898151;29;19963;-82
2022/03/16 14:37:54;;;;;;;;;;;14.50;88.90;;;;;;4898566;29;19922;-81
2022/03/16 14:40:38;;;;;;;;;;;;;;;;;;4899393;29;19966;-81
2022/03/16 14:43:24;;;;;;;;;;;14.40;88.50;;;;;;4900974;29;19962;-81
2022/03/16 14:46:08;;;;;;;;;;;;;;;;;;4902457;29;19927;-82
2022/03/16 14:48:53;;;;;;;;;;;14.30;88.70;;;;;;4903193;29;20284;-81
2022/03/16 14:51:38;;;;;;;;;;;;;;;;;;4917381;29;20295;-83
2022/03/16 14:54:26;;;;;;;;;;;14.30;88.90;;;;;;4917046;29;20517;-90
2022/03/16 14:57:11;;;;;;;;;;;;;;;;;;4901700;29;19966;-82
2022/03/16 15:02:13;;;;;;;21.88;15.25;;;14.20;89.40;;;;;;5150327;27;20182;-82
2022/03/16 15:04:59;;;;;;;22.85;15.60;;;14.10;90.00;;;;;;5135473;27;20034;-82
2022/03/16 15:07:44;;;;;;;23.52;16.10;;;14.10;90.10;;;;;;5151028;27;20058;-82
2022/03/16 15:10:28;;;;;;;25.48;16.70;;;14.10;90.30;;;;;;5138040;27;20447;-83
2022/03/16 15:13:12;;;;;;;25.15;16.50;;;14.00;90.20;;;;;;5150367;27;20087;-83
2022/03/16 15:15:56;;;;;;;24.83;16.98;;;14.20;90.70;;;;;;5164475;27;20122;-82
2022/03/16 15:18:40;;;;;;;23.05;16.05;;;14.00;90.30;;;;;;5149776;27;20038;-82
2022/03/16 15:21:25;;;;;;;23.30;16.05;;;14.00;90.30;;;;;;5149520;27;20158;-82
2022/03/16 15:24:10;;;;;;;23.38;16.23;;;14.00;90.70;;;;;;5148842;27;20104;-82
2022/03/16 15:26:56;;;;;;;21.40;15.57;;;;;;;;;;5150710;27;20091;-83
2022/03/16 15:29:41;;;;;;;25.80;16.48;;;13.90;90.50;;;;;;5150587;27;20042;-82
2022/03/16 15:32:26;;;;;;;23.67;15.60;;;;;;;;;;5148913;27;20037;-83
2022/03/16 15:35:11;;;;;;;27.50;17.70;;;13.90;90.40;;;;;;5149269;27;20048;-83
2022/03/16 15:37:57;;;;;;;23.05;16.48;;;13.90;90.60;;;;;;5149676;27;20430;-84
2022/03/16 15:43:44;;;;;;;22.50;15.98;;;13.90;90.90;;;;;;5147018;27;20052;-83
2022/03/16 15:46:28;;;;;;;28.45;16.20;;;13.90;91.20;;;;;;5147735;27;20046;-83
2022/03/16 15:49:13;;;;;;;27.42;16.40;;;13.80;91.00;;;;;;5141820;27;20047;-82
2022/03/16 15:51:57;;;;;;;25.15;16.58;;;13.80;91.20;;;;;;5146460;27;20064;-83
2022/03/16 15:54:41;;;;;;;26.67;18.00;;;13.80;91.40;;;;;;5135288;27;20445;-83
2022/03/16 15:57:26;;;;;;;26.60;16.90;;;13.70;91.30;;;;;;5127708;28;20147;-83
2022/03/16 16:00:15;;;;;;;22.73;16.88;;;13.70;91.70;;;;;;5141994;27;20454;-84
2022/03/16 16:03:01;;;;;;;24.92;16.02;;;13.70;91.60;;;;;;5129690;27;20786;-82
2022/03/16 16:05:47;;;;;;;26.92;16.98;;;13.60;91.60;;;;;;5114856;27;20050;-83
2022/03/16 16:08:32;;;;;;;25.08;15.18;;;13.60;91.60;;;;;;5132916;27;20037;-82
2022/03/16 16:11:17;;;;;;;26.35;15.52;;;13.60;91.50;;;;;;5147211;27;20406;-83
2022/03/16 16:14:01;;;;;;;24.05;16.85;;;13.60;91.50;;;;;;5135286;27;20074;-83
2022/03/16 16:16:46;;;;;;;24.60;15.88;;;13.50;91.70;;;;;;5134201;27;20065;-83
2022/03/16 16:19:30;;;;;;;21.58;15.18;;;13.50;91.50;;;;;;5134797;27;20629;-83
2022/03/16 16:22:15;;;;;;;24.15;16.02;;;13.50;91.60;;;;;;5119316;27;20045;-83
2022/03/16 16:24:59;;;;;;;20.77;14.75;;;13.50;91.80;;;;;;5133853;27;20077;-82
2022/03/16 16:27:43;;;;;;;;;;;13.40;91.90;;;;;;5130697;27;20399;-83
2022/03/16 16:30:33;;;;;;;23.00;16.02;;;13.40;92.10;;;;;;5132518;27;20001;-81
2022/03/16 16:33:17;;;;;;;26.75;18.42;;;13.30;92.00;;;;;;5134772;27;20045;-83
2022/03/16 16:36:05;;;;;;;24.40;15.55;;;13.30;92.20;;;;;;5153601;27;20089;-82